메인 페이지
METAR-TAF:

METAR-TAF

공항 :

Elkhart-Morton County Airport

Elkhart, 캔자스, 미국

위도: 37-00N, 경도: 101-54W, 고도: 1099m

현재 날씨관측

예보는 34분 전, 16:15시(UTC)에 발표되었습니다.
10kt
온도 10°C
습도 43%
기압 1012 hPa
시정: 16.1km
맑음

METAR: KEHA 191615Z AUTO 35010KT 10SM CLR 10/M02 A2988 RMK AO2 T01001016

시각: 10:49 (16:49 UTC)


TAF: 누락

4,000개 이상의 공항 관측 자료 및 예보 (METAR 및 TAF 보고).

지도상에서 검색 가능한 기상관측소가 노란 점과 빨간 점으로 표시되어 있습니다.

기상관측소 명을 보려면 표시 위로 마우스를 이동하세요.

날씨 관측과 예보를 보려면 클릭하세요.

지도 변경 : 확대하려면 엑스 표시가 있는 녹색 버튼, 축소하려면 빼기 표시가 있는 녹색 버튼, 다음 페이지의 지도를 보려면 녹색 화살표를 클릭하세요.


METAR-TAF: